Time;durP1;ratioP1;P1;durP2;ratioP2;P2;SDS_P1;SDS_P2;PMS_P1;PMS_P2;Temp;Humidity;BMP_temperature;BMP_pressure;BME280_temperature;BME280_humidity;BME280_pressure;Samples;Min_cycle;Max_cycle;Signal;HPM_P1;HPM_P2
2023/11/23 00:03:31;;;;;;;30.60;15.23;;;;;7.50;102078.00;;;;10362904;28;20314;-71
2023/11/23 00:08:34;;;;;;;27.60;15.97;;;;;7.50;102077.00;;;;10365447;28;20277;-72
2023/11/23 00:13:36;;;;;;;29.70;16.33;;;;;7.50;102069.00;;;;10371534;28;20929;-72
2023/11/23 00:18:37;;;;;;;28.80;17.33;;;;;7.50;102065.00;;;;10397858;28;20314;-71
2023/11/23 00:23:38;;;;;;;27.07;16.63;;;;;7.50;102066.00;;;;10385036;28;20226;-71
2023/11/23 00:28:39;;;;;;;28.73;16.73;;;;;7.50;102064.00;;;;10402407;28;20266;-72
2023/11/23 00:33:41;;;;;;;28.90;16.27;;;;;7.60;102062.00;;;;10400407;28;20259;-71
2023/11/23 00:38:42;;;;;;;32.80;17.10;;;;;7.60;102062.00;;;;10408395;28;20230;-71
2023/11/23 00:43:43;;;;;;;28.40;17.00;;;;;7.60;102067.00;;;;10401574;28;20234;-71
2023/11/23 00:48:45;;;;;;;29.17;17.00;;;;;7.60;102055.00;;;;10398538;28;20226;-72
2023/11/23 00:53:46;;;;;;;32.07;18.40;;;;;7.60;102071.00;;;;10411433;28;20580;-71
2023/11/23 00:58:47;;;;;;;31.93;19.23;;;;;7.60;102059.00;;;;10400085;28;20305;-71
2023/11/23 01:03:48;;;;;;;29.30;18.77;;;;;7.70;102059.00;;;;10405128;28;20299;-71
2023/11/23 01:08:50;;;;;;;40.50;18.83;;;;;7.70;102057.00;;;;10407032;28;20223;-72
2023/11/23 01:13:51;;;;;;;30.00;17.17;;;;;7.70;102060.00;;;;10392402;28;20627;-73
2023/11/23 01:18:52;;;;;;;31.13;17.13;;;;;7.70;102062.00;;;;10399137;28;20219;-70
2023/11/23 01:23:54;;;;;;;32.63;18.07;;;;;7.70;102052.00;;;;10396060;28;20257;-71
2023/11/23 01:28:55;;;;;;;30.93;17.97;;;;;7.70;102049.00;;;;10392940;28;20646;-71
2023/11/23 01:33:57;;;;;;;31.77;18.23;;;;;7.70;102059.00;;;;10399285;28;20255;-71
2023/11/23 01:38:58;;;;;;;33.57;17.90;;;;;7.70;102075.00;;;;10401434;28;20229;-72
2023/11/23 01:44:00;;;;;;;37.23;18.97;;;;;7.70;102074.00;;;;10391699;28;20218;-71
2023/11/23 01:49:03;;;;;;;37.17;19.43;;;;;7.70;102076.00;;;;10395434;28;20719;-71
2023/11/23 01:54:04;;;;;;;33.87;18.27;;;;;7.80;102055.00;;;;10405543;28;20231;-71
2023/11/23 01:59:05;;;;;;;32.40;18.77;;;;;7.80;102049.00;;;;10354973;28;20733;-73
2023/11/23 02:04:08;;;;;;;34.07;19.33;;;;;7.80;102049.00;;;;10367687;28;20251;-71
2023/11/23 02:09:10;;;;;;;31.93;17.83;;;;;7.80;102048.00;;;;10364731;28;20580;-71
2023/11/23 02:14:11;;;;;;;30.93;19.73;;;;;7.80;102048.00;;;;10337479;28;20218;-71
2023/11/23 02:19:12;;;;;;;31.97;20.00;;;;;7.90;102056.00;;;;10396817;28;20222;-71
2023/11/23 02:24:14;;;;;;;30.80;19.17;;;;;7.90;102042.00;;;;10404249;28;20680;-71
2023/11/23 02:29:15;;;;;;;29.23;18.33;;;;;7.90;102043.00;;;;10399150;28;20257;-72
2023/11/23 02:34:16;;;;;;;28.53;18.93;;;;;8.00;102038.00;;;;10397826;28;20310;-71
2023/11/23 02:39:17;;;;;;;36.57;19.13;;;;;8.00;102040.00;;;;10398057;28;20309;-71
2023/11/23 02:44:18;;;;;;;31.33;19.07;;;;;8.00;102040.00;;;;10392825;28;20241;-71
2023/11/23 02:49:19;;;;;;;32.97;19.63;;;;;8.00;102046.00;;;;10406671;28;20222;-71
2023/11/23 02:54:20;;;;;;;28.70;17.87;;;;;8.10;102020.00;;;;10401396;28;20236;-71
2023/11/23 02:59:22;;;;;;;28.50;19.23;;;;;8.10;102025.00;;;;10399536;28;20258;-72
2023/11/23 03:04:23;;;;;;;32.80;17.60;;;;;8.10;102023.00;;;;10401182;28;20230;-71
2023/11/23 03:09:24;;;;;;;31.70;19.37;;;;;8.20;102013.00;;;;10407408;28;20219;-71
2023/11/23 03:14:26;;;;;;;30.53;17.03;;;;;8.20;102010.00;;;;10399966;28;20273;-71
2023/11/23 03:19:27;;;;;;;29.03;18.27;;;;;8.20;102021.00;;;;10408215;28;20221;-71
2023/11/23 03:24:28;;;;;;;29.67;17.47;;;;;8.20;102028.00;;;;10404315;28;20277;-71
2023/11/23 03:29:29;;;;;;;25.33;17.13;;;;;8.20;102027.00;;;;10399833;28;20300;-71
2023/11/23 03:34:31;;;;;;;28.60;17.23;;;;;8.20;102019.00;;;;10405179;28;20395;-71
2023/11/23 03:39:32;;;;;;;26.93;18.03;;;;;8.20;102012.00;;;;10405605;28;20222;-70
2023/11/23 03:44:33;;;;;;;33.83;19.13;;;;;8.30;102006.00;;;;10397500;28;20742;-71
2023/11/23 03:49:35;;;;;;;31.83;19.37;;;;;8.30;101994.00;;;;10402092;28;20221;-71
2023/11/23 03:54:36;;;;;;;28.17;17.50;;;;;8.30;101993.00;;;;10388256;28;20218;-71
2023/11/23 03:59:37;;;;;;;28.83;19.90;;;;;8.30;101993.00;;;;10384022;28;20585;-71
2023/11/23 04:04:39;;;;;;;28.00;17.63;;;;;8.30;101992.00;;;;10387588;28;20996;-71
2023/11/23 04:09:40;;;;;;;32.60;17.80;;;;;8.40;101988.00;;;;10400924;28;20993;-71
2023/11/23 04:14:41;;;;;;;31.07;19.07;;;;;8.40;101990.00;;;;10406486;28;20225;-71
2023/11/23 04:19:43;;;;;;;29.03;19.23;;;;;8.40;101977.00;;;;10397796;28;20696;-71
2023/11/23 04:24:44;;;;;;;29.57;18.57;;;;;8.40;101977.00;;;;10401280;28;20262;-71
2023/11/23 04:29:47;;;;;;;31.33;19.33;;;;;8.40;101978.00;;;;10400639;28;20271;-71
2023/11/23 04:34:48;;;;;;;27.53;18.00;;;;;8.40;101981.00;;;;10396982;28;20280;-72
2023/11/23 04:39:51;;;;;;;29.60;17.67;;;;;8.50;101971.00;;;;10405825;28;21002;-71
2023/11/23 04:44:52;;;;;;;30.77;19.57;;;;;8.50;101974.00;;;;10394430;28;20294;-71
2023/11/23 04:49:54;;;;;;;33.70;19.80;;;;;8.50;101978.00;;;;10399813;28;20356;-71
2023/11/23 04:54:55;;;;;;;34.53;19.37;;;;;8.50;101994.00;;;;10396970;28;20210;-71
2023/11/23 04:59:56;;;;;;;28.20;17.77;;;;;8.60;101988.00;;;;10402818;28;20214;-71
2023/11/23 05:04:57;;;;;;;30.17;17.67;;;;;8.60;101997.00;;;;10400072;28;20800;-71
2023/11/23 05:09:58;;;;;;;30.50;19.00;;;;;8.60;101999.00;;;;10399667;28;20222;-71
2023/11/23 05:14:59;;;;;;;27.90;18.73;;;;;8.70;102000.00;;;;10399909;28;20226;-72
2023/11/23 05:20:01;;;;;;;27.30;18.00;;;;;8.80;101979.00;;;;10401825;28;20222;-72
2023/11/23 05:25:02;;;;;;;26.60;16.50;;;;;8.80;101977.00;;;;10404724;28;20250;-72
2023/11/23 05:30:04;;;;;;;30.33;17.17;;;;;8.70;101979.00;;;;10397378;28;20253;-71
2023/11/23 05:35:07;;;;;;;29.77;16.67;;;;;8.70;101977.00;;;;10402965;28;21145;-71
2023/11/23 05:40:09;;;;;;;29.37;16.40;;;;;8.70;101974.00;;;;10404249;28;20223;-71
2023/11/23 05:45:10;;;;;;;31.47;17.67;;;;;8.70;101977.00;;;;10398488;28;20226;-71
2023/11/23 05:50:11;;;;;;;28.13;16.10;;;;;8.70;101987.00;;;;10404011;28;20222;-71
2023/11/23 05:55:15;;;;;;;27.50;15.77;;;;;8.80;101989.00;;;;10398827;28;20222;-71
2023/11/23 06:00:16;;;;;;;26.20;15.73;;;;;8.80;101985.00;;;;10396491;28;20258;-71
2023/11/23 06:05:18;;;;;;;27.73;16.30;;;;;8.80;101989.00;;;;10382034;28;20241;-72
2023/11/23 06:10:19;;;;;;;29.37;15.90;;;;;8.80;101984.00;;;;10397951;28;20230;-72
2023/11/23 06:15:20;;;;;;;27.20;15.93;;;;;8.80;101992.00;;;;10397150;28;20313;-73
2023/11/23 06:20:21;;;;;;;21.03;14.63;;;;;8.80;101993.00;;;;10399039;28;20221;-72
2023/11/23 06:25:23;;;;;;;25.33;13.83;;;;;8.90;101984.00;;;;10385925;28;20321;-71
2023/11/23 06:30:26;;;;;;;24.50;14.03;;;;;8.90;101973.00;;;;10365099;28;20655;-72
2023/11/23 06:35:28;;;;;;;22.93;13.13;;;;;8.90;101958.00;;;;10367686;28;20674;-71
2023/11/23 06:40:29;;;;;;;21.43;13.43;;;;;9.00;101959.00;;;;10393694;28;20218;-72
2023/11/23 06:45:30;;;;;;;23.43;13.63;;;;;9.00;101955.00;;;;10401012;28;20233;-71
2023/11/23 06:50:32;;;;;;;21.50;12.30;;;;;8.90;101948.00;;;;10403633;28;20295;-72
2023/11/23 06:55:33;;;;;;;24.77;13.37;;;;;8.80;101948.00;;;;10394843;28;20302;-71
2023/11/23 07:00:35;;;;;;;16.67;12.20;;;;;8.80;101945.00;;;;10403689;28;20233;-71
2023/11/23 07:05:36;;;;;;;19.23;12.90;;;;;8.60;101948.00;;;;10414026;28;20230;-71
2023/11/23 07:10:39;;;;;;;22.07;12.53;;;;;8.50;101949.00;;;;10404675;28;20241;-71
2023/11/23 07:15:41;;;;;;;22.40;12.97;;;;;8.40;101953.00;;;;10401975;28;20301;-73
2023/11/23 07:20:42;;;;;;;19.67;13.17;;;;;8.50;101949.00;;;;10365315;28;20229;-72
2023/11/23 07:25:44;;;;;;;17.03;12.60;;;;;8.60;101950.00;;;;10402024;28;20284;-71
2023/11/23 07:30:45;;;;;;;20.23;12.47;;;;;8.70;101954.00;;;;10398745;28;20309;-71
2023/11/23 07:35:48;;;;;;;22.53;13.83;;;;;8.90;101947.00;;;;10399727;28;21038;-72
2023/11/23 07:40:49;;;;;;;21.13;11.57;;;;;9.00;101950.00;;;;10381744;28;20234;-71
2023/11/23 07:45:50;;;;;;;22.13;13.60;;;;;9.10;101956.00;;;;10402132;28;20225;-72
2023/11/23 07:50:51;;;;;;;23.10;12.70;;;;;9.20;101957.00;;;;10402578;28;20229;-71
2023/11/23 07:55:54;;;;;;;18.37;11.43;;;;;9.30;101967.00;;;;10401129;28;20221;-71
2023/11/23 08:00:57;;;;;;;15.60;10.97;;;;;9.40;101964.00;;;;10389303;28;20896;-71
2023/11/23 08:05:59;;;;;;;16.20;11.07;;;;;9.40;101955.00;;;;10397890;28;20257;-71
2023/11/23 08:11:00;;;;;;;20.93;11.43;;;;;9.50;101953.00;;;;10404866;28;20253;-72
2023/11/23 08:16:04;;;;;;;19.67;10.80;;;;;9.70;101955.00;;;;10394772;28;20605;-72
2023/11/23 08:21:05;;;;;;;16.20;10.30;;;;;9.80;101965.00;;;;10392621;28;20318;-72
2023/11/23 08:26:07;;;;;;;16.43;10.40;;;;;9.90;101962.00;;;;10386776;28;20234;-72
2023/11/23 08:31:08;;;;;;;16.10;9.00;;;;;10.00;101957.00;;;;10404156;28;20244;-71
2023/11/23 08:36:10;;;;;;;16.07;9.97;;;;;10.10;101957.00;;;;10404323;28;20826;-71
2023/11/23 08:41:11;;;;;;;13.70;9.10;;;;;10.20;101956.00;;;;10407490;28;20260;-71
2023/11/23 08:46:12;;;;;;;14.43;9.43;;;;;10.30;101944.00;;;;10400783;28;20226;-72
2023/11/23 08:51:14;;;;;;;15.33;7.60;;;;;10.50;101932.00;;;;10403163;28;20226;-71
2023/11/23 08:56:15;;;;;;;16.77;8.10;;;;;10.60;101934.00;;;;10402221;28;20321;-71
2023/11/23 09:01:18;;;;;;;13.60;7.90;;;;;10.70;101939.00;;;;10344248;28;20276;-72
2023/11/23 09:06:19;;;;;;;15.53;8.30;;;;;10.80;101931.00;;;;10342660;28;20232;-71
2023/11/23 09:11:21;;;;;;;13.40;7.90;;;;;10.80;101924.00;;;;10344128;28;20235;-72
2023/11/23 09:16:22;;;;;;;13.90;6.47;;;;;10.90;101909.00;;;;10396834;28;20250;-71
2023/11/23 09:21:24;;;;;;;12.73;7.50;;;;;11.00;101894.00;;;;10397909;28;20309;-71
2023/11/23 09:26:25;;;;;;;10.53;6.70;;;;;11.10;101862.00;;;;10399527;28;20292;-71
2023/11/23 09:31:31;;;;;;;18.00;7.17;;;;;11.30;101880.00;;;;10398295;28;20298;-72
2023/11/23 09:36:32;;;;;;;8.90;5.97;;;;;11.50;101876.00;;;;10396610;28;20219;-71
2023/11/23 09:41:42;;;;;;;8.13;5.77;;;;;11.50;101870.00;;;;10375395;28;20585;-71
2023/11/23 09:46:45;;;;;;;9.40;5.77;;;;;11.60;101879.00;;;;10396557;28;20223;-72
2023/11/23 09:51:49;;;;;;;10.77;5.28;;;;;11.70;101899.00;;;;10406263;28;20246;-71
2023/11/23 09:56:50;;;;;;;10.63;5.37;;;;;11.80;101910.00;;;;10395145;28;20233;-72
2023/11/23 10:01:54;;;;;;;10.23;5.77;;;;;11.80;101912.00;;;;10399246;28;20309;-73
2023/11/23 10:06:57;;;;;;;7.00;5.03;;;;;11.80;101895.00;;;;10392978;28;20579;-72
2023/11/23 10:11:59;;;;;;;8.80;4.87;;;;;11.90;101876.00;;;;10340362;28;21000;-72
2023/11/23 10:17:00;;;;;;;12.50;6.03;;;;;12.00;101856.00;;;;10334972;28;20223;-72
2023/11/23 10:22:03;;;;;;;7.77;4.50;;;;;12.10;101854.00;;;;10339509;28;20227;-71
2023/11/23 10:27:05;;;;;;;7.43;4.37;;;;;12.20;101840.00;;;;10340301;28;20567;-72
2023/11/23 10:32:07;;;;;;;7.83;4.40;;;;;12.40;101845.00;;;;10358534;28;20219;-72
2023/11/23 10:37:13;;;;;;;9.63;4.40;;;;;12.60;101855.00;;;;10331636;28;20222;-73
2023/11/23 10:42:16;;;;;;;8.97;4.17;;;;;12.60;101846.00;;;;10330988;28;20226;-71
2023/11/23 10:47:17;;;;;;;7.55;4.18;;;;;12.60;101843.00;;;;10329545;28;20231;-71
2023/11/23 10:52:19;;;;;;;9.38;4.95;;;;;12.70;101832.00;;;;10333275;28;20270;-73
2023/11/23 10:57:22;;;;;;;9.77;3.47;;;;;12.60;101822.00;;;;10337554;28;20223;-72
2023/11/23 11:02:26;;;;;;;7.20;3.10;;;;;12.70;101821.00;;;;10340745;28;20218;-72
2023/11/23 11:07:30;;;;;;;8.48;3.88;;;;;12.60;101806.00;;;;10340737;28;20255;-71
2023/11/23 11:12:37;;;;;;;9.65;3.88;;;;;12.50;101806.00;;;;10336569;28;20281;-71
2023/11/23 11:17:39;;;;;;;5.22;2.97;;;;;12.70;101813.00;;;;10345874;28;20715;-71
2023/11/23 11:22:41;;;;;;;7.82;3.55;;;;;12.80;101795.00;;;;10341391;28;20228;-71
2023/11/23 11:27:42;;;;;;;6.70;3.38;;;;;12.90;101806.00;;;;10344467;28;20227;-71
2023/11/23 11:32:44;;;;;;;8.45;3.55;;;;;13.00;101791.00;;;;10342897;28;20278;-71
2023/11/23 11:37:45;;;;;;;7.75;3.47;;;;;13.00;101788.00;;;;10357244;28;20227;-72
2023/11/23 11:42:46;;;;;;;8.27;3.38;;;;;13.00;101760.00;;;;10337421;28;20305;-74
2023/11/23 11:47:47;;;;;;;7.88;3.78;;;;;12.90;101757.00;;;;10337119;28;20228;-71
2023/11/23 11:52:49;;;;;;;9.55;3.47;;;;;13.10;101765.00;;;;10340061;28;20318;-72
2023/11/23 11:57:50;;;;;;;8.55;3.35;;;;;13.50;101762.00;;;;10340337;28;20255;-72
2023/11/23 12:02:51;;;;;;;7.13;3.20;;;;;13.30;101749.00;;;;10336069;28;20250;-72
2023/11/23 12:07:53;;;;;;;6.10;3.10;;;;;13.20;101747.00;;;;10339417;28;20227;-71
2023/11/23 12:12:54;;;;;;;11.57;3.30;;;;;13.00;101766.00;;;;10339832;28;20289;-71
2023/11/23 12:17:57;;;;;;;7.18;3.22;;;;;12.80;101750.00;;;;10341556;28;20266;-72
2023/11/23 12:22:59;;;;;;;9.30;3.10;;;;;12.80;101749.00;;;;10336120;28;20220;-71
2023/11/23 12:28:04;;;;;;;8.25;2.75;;;;;12.80;101732.00;;;;10342187;28;20235;-73
2023/11/23 12:33:05;;;;;;;6.30;2.88;;;;;12.90;101715.00;;;;10336631;28;20232;-72
2023/11/23 12:38:07;;;;;;;9.48;3.15;;;;;12.90;101707.00;;;;10333479;28;20673;-71
2023/11/23 12:43:10;;;;;;;5.50;2.80;;;;;13.00;101691.00;;;;10341611;28;20314;-71
2023/11/23 12:48:11;;;;;;;7.97;2.97;;;;;13.00;101684.00;;;;10338720;28;20236;-72
2023/11/23 12:53:12;;;;;;;9.10;2.78;;;;;13.00;101689.00;;;;10338986;28;20299;-72
2023/11/23 12:58:16;;;;;;;6.82;2.83;;;;;12.90;101662.00;;;;10336268;28;20227;-72
2023/11/23 13:03:17;;;;;;;5.40;2.60;;;;;12.90;101646.00;;;;10308374;28;20228;-72
2023/11/23 13:08:22;;;;;;;6.53;2.83;;;;;12.90;101644.00;;;;10340500;28;20234;-72
2023/11/23 13:13:23;;;;;;;8.63;3.17;;;;;12.90;101624.00;;;;10341759;28;20250;-72
2023/11/23 13:18:24;;;;;;;10.18;2.72;;;;;12.90;101603.00;;;;10325527;28;20300;-72
2023/11/23 13:23:48;;;;;;;7.22;3.05;;;;;12.90;101601.00;;;;10344900;28;20277;-73
2023/11/23 13:28:49;;;;;;;7.30;2.90;;;;;12.80;101592.00;;;;10348853;28;20223;-72
2023/11/23 13:33:51;;;;;;;9.27;3.38;;;;;12.70;101586.00;;;;10345323;28;20254;-72
2023/11/23 13:38:52;;;;;;;7.13;3.33;;;;;12.80;101568.00;;;;10333034;28;20829;-72
2023/11/23 13:43:56;;;;;;;5.10;3.45;;;;;12.90;101549.00;;;;10335529;28;20602;-72
2023/11/23 13:48:58;;;;;;;6.10;2.95;;;;;13.00;101534.00;;;;10277187;28;20220;-72
2023/11/23 13:54:00;;;;;;;5.85;3.50;;;;;13.00;101517.00;;;;10331889;28;20307;-72
2023/11/23 13:59:01;;;;;;;6.57;3.00;;;;;12.90;101505.00;;;;10322479;28;20211;-72
2023/11/23 14:04:03;;;;;;;9.18;3.13;;;;;13.00;101512.00;;;;10337496;28;20319;-71
2023/11/23 14:09:09;;;;;;;8.82;3.38;;;;;12.70;101506.00;;;;10339722;28;20214;-72
2023/11/23 14:14:10;;;;;;;6.22;3.03;;;;;12.60;101505.00;;;;10337639;28;20590;-72
2023/11/23 14:19:15;;;;;;;11.60;3.92;;;;;12.50;101484.00;;;;10339796;28;20219;-72
2023/11/23 14:24:19;;;;;;;9.40;3.85;;;;;12.50;101481.00;;;;10338078;28;20233;-71
2023/11/23 14:29:20;;;;;;;5.13;3.40;;;;;12.60;101483.00;;;;10345040;28;20265;-72
2023/11/23 14:34:23;;;;;;;8.90;3.13;;;;;12.60;101493.00;;;;10349163;28;20282;-73
2023/11/23 14:39:27;;;;;;;8.95;3.33;;;;;12.50;101500.00;;;;10336479;28;20247;-72
2023/11/23 14:44:28;;;;;;;8.55;3.08;;;;;12.40;101474.00;;;;10342591;28;20293;-73
2023/11/23 14:49:30;;;;;;;9.60;3.15;;;;;12.40;101495.00;;;;10344440;28;20231;-71
2023/11/23 14:54:32;;;;;;;8.98;3.03;;;;;12.30;101481.00;;;;10347354;28;20289;-71
2023/11/23 14:59:39;;;;;;;7.93;3.55;;;;;12.20;101472.00;;;;10344157;28;20293;-72
2023/11/23 15:04:40;;;;;;;11.50;3.83;;;;;12.20;101466.00;;;;10341721;28;20538;-72
2023/11/23 15:09:41;;;;;;;9.75;3.42;;;;;12.20;101465.00;;;;10340906;28;20355;-72
2023/11/23 15:14:43;;;;;;;7.65;3.70;;;;;12.10;101476.00;;;;10342801;28;20223;-73
2023/11/23 15:19:45;;;;;;;9.05;3.60;;;;;11.90;101461.00;;;;10308842;28;20231;-71
2023/11/23 15:24:47;;;;;;;13.98;3.25;;;;;11.80;101464.00;;;;10323517;28;20234;-72
2023/11/23 15:29:58;;;;;;;6.60;3.45;;;;;11.80;101463.00;;;;10339749;28;20223;-73
2023/11/23 15:35:01;;;;;;;7.70;3.80;;;;;11.80;101455.00;;;;10346033;28;20243;-71
2023/11/23 15:40:05;;;;;;;7.57;3.43;;;;;11.70;101449.00;;;;10340583;28;20231;-72
2023/11/23 15:45:06;;;;;;;10.35;3.63;;;;;11.70;101449.00;;;;10346804;28;20363;-71
2023/11/23 15:50:08;;;;;;;9.47;3.53;;;;;11.60;101452.00;;;;10344843;28;20785;-71
2023/11/23 15:55:11;;;;;;;8.83;3.43;;;;;11.50;101423.00;;;;10344572;28;20219;-72
2023/11/23 16:00:12;;;;;;;9.07;3.17;;;;;11.30;101435.00;;;;10340795;28;20235;-72
2023/11/23 16:05:15;;;;;;;8.33;3.00;;;;;11.20;101437.00;;;;10331068;28;20686;-74
2023/11/23 16:10:16;;;;;;;6.53;2.97;;;;;11.20;101443.00;;;;10337853;28;20215;-71
2023/11/23 16:15:18;;;;;;;8.63;3.67;;;;;11.10;101443.00;;;;10337680;28;20234;-71
2023/11/23 16:20:20;;;;;;;14.27;3.80;;;;;11.00;101432.00;;;;10321300;28;20770;-71
2023/11/23 16:25:21;;;;;;;9.20;3.57;;;;;10.90;101447.00;;;;10344317;28;20243;-70
2023/11/23 16:30:22;;;;;;;7.67;2.77;;;;;10.90;101437.00;;;;10318157;28;20259;-71
2023/11/23 16:35:26;;;;;;;7.97;2.67;;;;;10.90;101451.00;;;;10346282;28;20227;-70
2023/11/23 16:40:27;;;;;;;9.97;3.47;;;;;10.90;101431.00;;;;10341102;28;20881;-72
2023/11/23 16:45:28;;;;;;;6.97;3.30;;;;;10.90;101424.00;;;;10343612;28;20223;-72
2023/11/23 16:50:29;;;;;;;10.07;3.77;;;;;10.80;101431.00;;;;10365214;28;20235;-70
2023/11/23 16:55:31;;;;;;;12.93;4.40;;;;;10.80;101443.00;;;;10339325;28;20293;-71
2023/11/23 17:00:32;;;;;;;5.90;3.97;;;;;10.70;101437.00;;;;10343193;28;20705;-70
2023/11/23 17:05:34;;;;;;;5.87;4.30;;;;;10.60;101416.00;;;;10340434;28;20226;-71
2023/11/23 17:10:35;;;;;;;7.37;5.10;;;;;10.60;101409.00;;;;10339860;28;20222;-71
2023/11/23 17:15:36;;;;;;;11.97;4.90;;;;;10.60;101403.00;;;;10337607;28;20282;-70
2023/11/23 17:20:38;;;;;;;11.43;5.57;;;;;10.50;101391.00;;;;10318054;28;20755;-70
2023/11/23 17:25:39;;;;;;;19.57;6.90;;;;;10.40;101398.00;;;;10336442;28;20716;-70
2023/11/23 17:30:41;;;;;;;8.13;5.00;;;;;10.30;101378.00;;;;10343077;28;20770;-72
2023/11/23 17:35:43;;;;;;;9.23;6.10;;;;;10.20;101381.00;;;;10340174;28;20227;-72
2023/11/23 17:40:44;;;;;;;11.20;6.70;;;;;10.20;101395.00;;;;10342265;28;20211;-71
2023/11/23 17:45:47;;;;;;;9.13;6.10;;;;;10.20;101401.00;;;;10352021;28;20288;-72
2023/11/23 17:50:48;;;;;;;13.00;6.27;;;;;10.30;101385.00;;;;10347704;28;20229;-71
2023/11/23 17:55:49;;;;;;;10.73;7.47;;;;;10.40;101371.00;;;;10339767;28;20223;-72
2023/11/23 18:00:50;;;;;;;10.03;6.67;;;;;10.30;101367.00;;;;10338878;28;20227;-71
2023/11/23 18:05:52;;;;;;;12.03;7.33;;;;;10.30;101373.00;;;;10340905;28;20740;-71
2023/11/23 18:10:53;;;;;;;12.50;6.87;;;;;10.30;101383.00;;;;10344988;28;20223;-73
2023/11/23 18:15:55;;;;;;;13.10;7.10;;;;;10.40;101402.00;;;;10344402;28;20223;-72
2023/11/23 18:20:56;;;;;;;12.83;6.87;;;;;10.40;101376.00;;;;10338198;28;20223;-71
2023/11/23 18:25:58;;;;;;;12.63;7.90;;;;;10.50;101396.00;;;;10338368;28;20227;-71
2023/11/23 18:31:00;;;;;;;13.47;6.93;;;;;10.50;101385.00;;;;10341228;28;20225;-72
2023/11/23 18:36:02;;;;;;;12.73;7.33;;;;;10.50;101375.00;;;;10321042;28;20273;-72
2023/11/23 18:41:04;;;;;;;8.70;7.10;;;;;10.50;101389.00;;;;10341629;28;20224;-72
2023/11/23 18:46:07;;;;;;;13.07;6.27;;;;;10.50;101388.00;;;;10339513;28;20645;-71
2023/11/23 18:51:08;;;;;;;10.87;5.73;;;;;10.60;101378.00;;;;10337652;28;20219;-72
2023/11/23 18:56:09;;;;;;;12.83;6.83;;;;;10.60;101383.00;;;;10336577;28;20558;-72
2023/11/23 19:01:10;;;;;;;10.53;6.80;;;;;10.50;101366.00;;;;10336446;28;20231;-71
2023/11/23 19:06:12;;;;;;;12.67;6.23;;;;;10.60;101372.00;;;;10336920;28;20224;-71
2023/11/23 19:11:13;;;;;;;14.53;6.57;;;;;10.60;101358.00;;;;10337530;28;20641;-73
2023/11/23 19:16:14;;;;;;;10.10;6.03;;;;;10.60;101342.00;;;;10335452;28;20959;-71
2023/11/23 19:21:18;;;;;;;11.33;5.80;;;;;10.60;101338.00;;;;10339878;28;20573;-72
2023/11/23 19:26:19;;;;;;;11.47;5.80;;;;;10.60;101321.00;;;;10338767;28;21036;-72
2023/11/23 19:31:20;;;;;;;11.47;5.67;;;;;10.60;101302.00;;;;10341922;28;20317;-73
2023/11/23 19:36:22;;;;;;;10.77;6.23;;;;;10.60;101308.00;;;;10342433;28;20230;-72
2023/11/23 19:41:24;;;;;;;12.23;5.80;;;;;10.60;101305.00;;;;10346125;28;20875;-72
2023/11/23 19:46:27;;;;;;;10.83;5.33;;;;;10.60;101301.00;;;;10346694;28;20855;-71
2023/11/23 19:51:29;;;;;;;9.70;5.00;;;;;10.70;101300.00;;;;10347691;28;20239;-71
2023/11/23 19:56:30;;;;;;;10.13;5.23;;;;;10.80;101305.00;;;;10348696;28;20326;-71
2023/11/23 20:01:31;;;;;;;11.63;5.23;;;;;10.80;101287.00;;;;10346226;28;20216;-71
2023/11/23 20:06:34;;;;;;;11.90;5.10;;;;;10.80;101289.00;;;;10347018;28;20297;-72
2023/11/23 20:11:36;;;;;;;8.90;5.07;;;;;10.80;101266.00;;;;10344879;28;20224;-71
2023/11/23 20:16:41;;;;;;;11.30;5.30;;;;;10.80;101273.00;;;;10336572;28;20277;-71
2023/11/23 20:21:42;;;;;;;15.53;5.50;;;;;10.80;101258.00;;;;10303272;28;20239;-72
2023/11/23 20:26:43;;;;;;;13.00;5.10;;;;;10.90;101249.00;;;;10319443;28;20232;-71
2023/11/23 20:31:45;;;;;;;11.63;5.80;;;;;10.90;101253.00;;;;10335381;28;20678;-72
2023/11/23 20:36:46;;;;;;;10.67;5.13;;;;;10.90;101254.00;;;;10331856;28;20224;-72
2023/11/23 20:41:49;;;;;;;13.20;4.90;;;;;11.00;101257.00;;;;10316012;28;20312;-72
2023/11/23 20:46:51;;;;;;;9.30;4.83;;;;;11.00;101253.00;;;;10360408;28;20235;-72
2023/11/23 20:51:52;;;;;;;14.30;5.30;;;;;11.00;101258.00;;;;10343174;28;20314;-73
2023/11/23 20:56:57;;;;;;;15.47;5.63;;;;;11.00;101246.00;;;;10341980;28;20220;-72
2023/11/23 21:01:58;;;;;;;12.93;5.43;;;;;10.90;101249.00;;;;10339279;28;20640;-73
2023/11/23 21:07:00;;;;;;;11.57;5.50;;;;;10.90;101239.00;;;;10331085;28;20879;-73
2023/11/23 21:12:05;;;;;;;10.13;5.23;;;;;10.90;101250.00;;;;10329596;28;20223;-72
2023/11/23 21:17:16;;;;;;;11.97;5.60;;;;;10.90;101235.00;;;;10334748;28;20216;-72
2023/11/23 21:22:17;;;;;;;12.27;6.20;;;;;11.00;101231.00;;;;10337770;28;20325;-74
2023/11/23 21:27:18;;;;;;;12.43;5.43;;;;;11.10;101214.00;;;;10285789;28;20255;-72
2023/11/23 21:32:20;;;;;;;9.93;5.30;;;;;11.10;101205.00;;;;10291954;28;20228;-71
2023/11/23 21:37:21;;;;;;;13.73;5.57;;;;;11.20;101199.00;;;;10307874;28;20224;-72
2023/11/23 21:42:22;;;;;;;12.40;5.43;;;;;11.20;101194.00;;;;10312274;28;20231;-73
2023/11/23 21:47:24;;;;;;;11.17;6.30;;;;;11.30;101171.00;;;;10307294;28;20314;-73
2023/11/23 21:52:25;;;;;;;9.43;5.50;;;;;11.30;101177.00;;;;10331271;28;20219;-72
2023/11/23 21:57:26;;;;;;;11.60;5.50;;;;;11.30;101165.00;;;;10333570;28;20329;-72
2023/11/23 22:02:27;;;;;;;18.03;6.27;;;;;11.30;101157.00;;;;10336029;28;20661;-74
2023/11/23 22:07:28;;;;;;;11.43;5.93;;;;;11.30;101162.00;;;;10315140;28;20263;-74
2023/11/23 22:12:30;;;;;;;12.97;5.80;;;;;11.30;101148.00;;;;10336698;28;20225;-73
2023/11/23 22:17:33;;;;;;;11.73;5.97;;;;;11.30;101143.00;;;;10335757;28;20231;-72
2023/11/23 22:22:35;;;;;;;12.47;7.03;;;;;11.30;101138.00;;;;10335102;28;20223;-73
2023/11/23 22:27:36;;;;;;;14.03;5.90;;;;;11.30;101132.00;;;;10332496;28;20227;-73
2023/11/23 22:32:39;;;;;;;13.60;5.73;;;;;11.30;101137.00;;;;10339490;28;20230;-72
2023/11/23 22:37:41;;;;;;;13.63;5.87;;;;;11.30;101139.00;;;;10336278;28;20216;-72
2023/11/23 22:42:42;;;;;;;12.93;5.90;;;;;11.10;101145.00;;;;10330477;28;20349;-74
2023/11/23 22:47:43;;;;;;;12.80;5.97;;;;;11.10;101134.00;;;;10319766;28;20231;-72
2023/11/23 22:52:44;;;;;;;17.47;6.93;;;;;11.10;101126.00;;;;10334792;28;20227;-74
2023/11/23 22:57:46;;;;;;;12.07;6.20;;;;;11.00;101115.00;;;;10333992;28;20305;-72
2023/11/23 23:02:47;;;;;;;18.17;6.67;;;;;11.00;101123.00;;;;10335124;28;20223;-72
2023/11/23 23:07:48;;;;;;;11.13;6.87;;;;;11.10;101121.00;;;;10334075;28;20250;-72
2023/11/23 23:12:52;;;;;;;11.17;5.63;;;;;11.00;101132.00;;;;10332710;28;20952;-73
2023/11/23 23:17:54;;;;;;;14.77;6.07;;;;;10.80;101124.00;;;;10321349;28;20254;-72
2023/11/23 23:22:55;;;;;;;16.77;7.22;;;;;10.70;101122.00;;;;10337737;28;20989;-74
2023/11/23 23:27:57;;;;;;;12.03;7.00;;;;;10.60;101112.00;;;;10337167;28;20281;-72
2023/11/23 23:32:58;;;;;;;13.37;6.60;;;;;10.60;101101.00;;;;10336548;28;20803;-73
2023/11/23 23:37:59;;;;;;;12.53;6.90;;;;;10.60;101095.00;;;;10343612;28;20738;-73
2023/11/23 23:43:01;;;;;;;13.97;7.20;;;;;10.50;101101.00;;;;10338935;28;20227;-74
2023/11/23 23:48:04;;;;;;;13.90;7.03;;;;;10.60;101110.00;;;;10304618;28;20412;-74
2023/11/23 23:53:05;;;;;;;10.63;5.63;;;;;10.60;101109.00;;;;10335981;28;20559;-73
2023/11/23 23:58:09;;;;;;;10.17;5.00;;;;;10.70;101146.00;;;;10340025;28;20227;-73
